Worden, Montana
Current Conditions -  °F | °C
As of 11:53 PM on Saturday 25 Oct 2014 (Local Time) from KBIL Reporting Station
Broken Clouds Broken Clouds  
Wind Chill: 55°   Ceiling: 25000
Heat Index: 55°   Visibility: 10mi
Dew Point: 35°   Wind: 17mph
Humidity: 47%   Direction: 230°SW
Pressure: 29.65"   Gusts: NA
Location:  45.96°N, 108.16°W
Report Text: KBIL 260553Z 23015KT 10SM SCT200 BKN250 13/02 A2965 RMK AO2 SLP027 T01280017 10150 20111 58015
Loading
Personal Weather Stations






























Interactive Weather Map
Tropical Storm Tracking
New forecast layout! Learn more

10-Day Weather Forecast

Advertisements
Track Severe Weather on mobile